sensor_id;sensor_type;location;lat;lon;timestamp;P1;durP1;ratioP1;P2;durP2;ratioP2
2406;SDS011;37709;53.480;9.688;2022-08-11T00:00:08;4.17;;;3.77;;
2406;SDS011;37709;53.480;9.688;2022-08-11T00:02:42;5.30;;;4.20;;
2406;SDS011;37709;53.480;9.688;2022-08-11T00:05:13;4.07;;;3.63;;
2406;SDS011;37709;53.480;9.688;2022-08-11T00:10:15;7.70;;;3.10;;
2406;SDS011;37709;53.480;9.688;2022-08-11T00:12:51;4.63;;;2.87;;
2406;SDS011;37709;53.480;9.688;2022-08-11T00:15:23;3.17;;;2.90;;
2406;SDS011;37709;53.480;9.688;2022-08-11T00:17:56;6.67;;;3.60;;
2406;SDS011;37709;53.480;9.688;2022-08-11T00:20:29;4.20;;;3.80;;
2406;SDS011;37709;53.480;9.688;2022-08-11T00:23:09;8.27;;;4.00;;
2406;SDS011;37709;53.480;9.688;2022-08-11T00:25:44;4.23;;;3.80;;
2406;SDS011;37709;53.480;9.688;2022-08-11T00:28:30;6.43;;;3.70;;
2406;SDS011;37709;53.480;9.688;2022-08-11T00:31:04;5.73;;;3.87;;
2406;SDS011;37709;53.480;9.688;2022-08-11T00:33:38;6.67;;;4.10;;
2406;SDS011;37709;53.480;9.688;2022-08-11T00:36:13;4.60;;;4.20;;
2406;SDS011;37709;53.480;9.688;2022-08-11T00:38:48;5.10;;;3.73;;
2406;SDS011;37709;53.480;9.688;2022-08-11T00:41:34;9.40;;;3.97;;
2406;SDS011;37709;53.480;9.688;2022-08-11T00:46:54;7.67;;;4.30;;
2406;SDS011;37709;53.480;9.688;2022-08-11T01:09:30;4.20;;;3.90;;
2406;SDS011;37709;53.480;9.688;2022-08-11T01:29:57;5.53;;;4.60;;
2406;SDS011;37709;53.480;9.688;2022-08-11T01:46:29;5.20;;;4.70;;
2406;SDS011;37709;53.480;9.688;2022-08-11T01:52:25;5.00;;;4.60;;
2406;SDS011;37709;53.480;9.688;2022-08-11T01:58:04;4.90;;;4.50;;
2406;SDS011;37709;53.480;9.688;2022-08-11T02:03:42;5.20;;;4.70;;
2406;SDS011;37709;53.480;9.688;2022-08-11T02:09:55;7.73;;;5.30;;
2406;SDS011;37709;53.480;9.688;2022-08-11T02:12:47;5.93;;;4.90;;
2406;SDS011;37709;53.480;9.688;2022-08-11T02:15:26;6.80;;;5.00;;
2406;SDS011;37709;53.480;9.688;2022-08-11T02:18:09;5.23;;;4.73;;
2406;SDS011;37709;53.480;9.688;2022-08-11T02:20:50;5.33;;;4.80;;
2406;SDS011;37709;53.480;9.688;2022-08-11T02:23:57;5.00;;;4.50;;
2406;SDS011;37709;53.480;9.688;2022-08-11T02:26:40;5.33;;;4.93;;
2406;SDS011;37709;53.480;9.688;2022-08-11T02:29:15;5.80;;;5.30;;
2406;SDS011;37709;53.480;9.688;2022-08-11T02:31:51;5.37;;;4.87;;
2406;SDS011;37709;53.480;9.688;2022-08-11T02:35:08;5.37;;;4.97;;
2406;SDS011;37709;53.480;9.688;2022-08-11T02:54:37;6.53;;;5.77;;
2406;SDS011;37709;53.480;9.688;2022-08-11T02:59:50;7.87;;;5.83;;
2406;SDS011;37709;53.480;9.688;2022-08-11T03:11:02;6.97;;;4.70;;
2406;SDS011;37709;53.480;9.688;2022-08-11T03:13:57;5.30;;;4.40;;
2406;SDS011;37709;53.480;9.688;2022-08-11T03:16:56;4.97;;;4.57;;
2406;SDS011;37709;53.480;9.688;2022-08-11T03:19:35;4.80;;;4.40;;
2406;SDS011;37709;53.480;9.688;2022-08-11T03:24:53;6.73;;;4.87;;
2406;SDS011;37709;53.480;9.688;2022-08-11T03:27:32;5.10;;;4.67;;
2406;SDS011;37709;53.480;9.688;2022-08-11T03:33:14;5.50;;;5.00;;
2406;SDS011;37709;53.480;9.688;2022-08-11T03:36:19;9.80;;;6.00;;
2406;SDS011;37709;53.480;9.688;2022-08-11T03:39:53;6.10;;;5.50;;
2406;SDS011;37709;53.480;9.688;2022-08-11T03:48:08;6.27;;;5.67;;
2406;SDS011;37709;53.480;9.688;2022-08-11T03:51:08;6.27;;;5.50;;
2406;SDS011;37709;53.480;9.688;2022-08-11T04:05:43;7.53;;;6.70;;
2406;SDS011;37709;53.480;9.688;2022-08-11T04:08:39;6.73;;;6.13;;
2406;SDS011;37709;53.480;9.688;2022-08-11T04:11:34;7.67;;;6.93;;
2406;SDS011;37709;53.480;9.688;2022-08-11T04:14:31;6.80;;;6.10;;
2406;SDS011;37709;53.480;9.688;2022-08-11T04:38:33;6.70;;;6.10;;
2406;SDS011;37709;53.480;9.688;2022-08-11T04:50:55;5.10;;;4.60;;
2406;SDS011;37709;53.480;9.688;2022-08-11T04:54:11;6.73;;;5.60;;
2406;SDS011;37709;53.480;9.688;2022-08-11T04:57:12;7.90;;;5.20;;
2406;SDS011;37709;53.480;9.688;2022-08-11T05:00:05;7.23;;;6.50;;
2406;SDS011;37709;53.480;9.688;2022-08-11T05:13:49;8.00;;;7.20;;
2406;SDS011;37709;53.480;9.688;2022-08-11T05:16:49;8.20;;;7.50;;
2406;SDS011;37709;53.480;9.688;2022-08-11T05:19:44;9.47;;;7.73;;
2406;SDS011;37709;53.480;9.688;2022-08-11T05:22:31;13.73;;;7.90;;
2406;SDS011;37709;53.480;9.688;2022-08-11T05:25:28;8.00;;;6.93;;
2406;SDS011;37709;53.480;9.688;2022-08-11T05:28:37;7.63;;;6.93;;
2406;SDS011;37709;53.480;9.688;2022-08-11T05:31:48;10.77;;;8.50;;
2406;SDS011;37709;53.480;9.688;2022-08-11T05:34:41;9.80;;;7.67;;
2406;SDS011;37709;53.480;9.688;2022-08-11T05:40:10;8.80;;;8.00;;
2406;SDS011;37709;53.480;9.688;2022-08-11T05:42:58;8.80;;;7.80;;
2406;SDS011;37709;53.480;9.688;2022-08-11T05:45:56;8.37;;;7.47;;
2406;SDS011;37709;53.480;9.688;2022-08-11T05:48:46;9.30;;;8.00;;
2406;SDS011;37709;53.480;9.688;2022-08-11T05:51:40;9.50;;;6.80;;
2406;SDS011;37709;53.480;9.688;2022-08-11T05:54:31;6.87;;;6.37;;
2406;SDS011;37709;53.480;9.688;2022-08-11T05:57:23;7.37;;;6.40;;
2406;SDS011;37709;53.480;9.688;2022-08-11T06:00:16;9.67;;;6.10;;
2406;SDS011;37709;53.480;9.688;2022-08-11T06:02:47;9.83;;;6.57;;
2406;SDS011;37709;53.480;9.688;2022-08-11T06:05:34;7.13;;;6.20;;
2406;SDS011;37709;53.480;9.688;2022-08-11T06:08:10;6.30;;;5.70;;
2406;SDS011;37709;53.480;9.688;2022-08-11T06:10:40;9.63;;;6.07;;
2406;SDS011;37709;53.480;9.688;2022-08-11T06:13:13;8.60;;;6.60;;
2406;SDS011;37709;53.480;9.688;2022-08-11T06:15:45;8.70;;;5.50;;
2406;SDS011;37709;53.480;9.688;2022-08-11T06:18:14;7.80;;;5.40;;
2406;SDS011;37709;53.480;9.688;2022-08-11T06:20:52;8.47;;;5.60;;
2406;SDS011;37709;53.480;9.688;2022-08-11T06:23:23;5.80;;;5.20;;
2406;SDS011;37709;53.480;9.688;2022-08-11T06:25:56;7.37;;;4.93;;
2406;SDS011;37709;53.480;9.688;2022-08-11T06:28:32;6.57;;;4.63;;
2406;SDS011;37709;53.480;9.688;2022-08-11T06:31:18;5.90;;;5.27;;
2406;SDS011;37709;53.480;9.688;2022-08-11T06:39:28;9.70;;;5.13;;
2406;SDS011;37709;53.480;9.688;2022-08-11T06:42:10;6.50;;;4.40;;
2406;SDS011;37709;53.480;9.688;2022-08-11T06:45:39;9.90;;;4.37;;
2406;SDS011;37709;53.480;9.688;2022-08-11T06:47:50;11.23;;;4.73;;
2406;SDS011;37709;53.480;9.688;2022-08-11T06:50:19;8.90;;;4.20;;
2406;SDS011;37709;53.480;9.688;2022-08-11T06:53:07;9.23;;;4.00;;
2406;SDS011;37709;53.480;9.688;2022-08-11T06:55:38;9.93;;;3.67;;
2406;SDS011;37709;53.480;9.688;2022-08-11T06:58:32;6.23;;;3.90;;
2406;SDS011;37709;53.480;9.688;2022-08-11T07:04:19;10.53;;;3.80;;
2406;SDS011;37709;53.480;9.688;2022-08-11T07:07:07;3.67;;;3.00;;
2406;SDS011;37709;53.480;9.688;2022-08-11T07:10:31;4.43;;;3.37;;
2406;SDS011;37709;53.480;9.688;2022-08-11T07:13:28;4.77;;;2.57;;
2406;SDS011;37709;53.480;9.688;2022-08-11T07:16:18;3.53;;;2.90;;
2406;SDS011;37709;53.480;9.688;2022-08-11T07:19:01;8.43;;;2.83;;
2406;SDS011;37709;53.480;9.688;2022-08-11T07:21:49;3.23;;;2.90;;
2406;SDS011;37709;53.480;9.688;2022-08-11T07:24:38;4.83;;;2.90;;
2406;SDS011;37709;53.480;9.688;2022-08-11T07:27:32;4.97;;;3.10;;
2406;SDS011;37709;53.480;9.688;2022-08-11T07:30:25;6.40;;;2.43;;
2406;SDS011;37709;53.480;9.688;2022-08-11T07:32:54;3.07;;;2.87;;
2406;SDS011;37709;53.480;9.688;2022-08-11T07:35:30;4.93;;;3.50;;
2406;SDS011;37709;53.480;9.688;2022-08-11T07:38:02;4.77;;;3.17;;
2406;SDS011;37709;53.480;9.688;2022-08-11T07:40:34;3.40;;;3.10;;
2406;SDS011;37709;53.480;9.688;2022-08-11T07:43:02;5.83;;;2.90;;
2406;SDS011;37709;53.480;9.688;2022-08-11T07:45:32;4.47;;;2.80;;
2406;SDS011;37709;53.480;9.688;2022-08-11T07:48:18;2.70;;;2.50;;
2406;SDS011;37709;53.480;9.688;2022-08-11T07:51:05;3.40;;;2.90;;
2406;SDS011;37709;53.480;9.688;2022-08-11T07:53:51;4.00;;;2.90;;
2406;SDS011;37709;53.480;9.688;2022-08-11T07:56:39;3.80;;;3.00;;
2406;SDS011;37709;53.480;9.688;2022-08-11T07:59:28;4.80;;;3.13;;
2406;SDS011;37709;53.480;9.688;2022-08-11T08:02:38;5.00;;;2.87;;
2406;SDS011;37709;53.480;9.688;2022-08-11T08:05:27;3.67;;;2.40;;
2406;SDS011;37709;53.480;9.688;2022-08-11T08:08:15;4.50;;;2.80;;
2406;SDS011;37709;53.480;9.688;2022-08-11T08:11:02;2.87;;;2.40;;
2406;SDS011;37709;53.480;9.688;2022-08-11T08:13:54;2.80;;;2.40;;
2406;SDS011;37709;53.480;9.688;2022-08-11T08:16:40;3.67;;;2.40;;
2406;SDS011;37709;53.480;9.688;2022-08-11T08:19:27;3.37;;;2.40;;
2406;SDS011;37709;53.480;9.688;2022-08-11T08:21:56;5.73;;;2.60;;
2406;SDS011;37709;53.480;9.688;2022-08-11T08:24:44;3.00;;;2.27;;
2406;SDS011;37709;53.480;9.688;2022-08-11T08:27:13;7.10;;;2.50;;
2406;SDS011;37709;53.480;9.688;2022-08-11T08:29:42;5.03;;;2.50;;
2406;SDS011;37709;53.480;9.688;2022-08-11T08:32:29;2.93;;;2.27;;
2406;SDS011;37709;53.480;9.688;2022-08-11T08:34:58;3.47;;;2.77;;
2406;SDS011;37709;53.480;9.688;2022-08-11T08:37:26;5.13;;;2.23;;
2406;SDS011;37709;53.480;9.688;2022-08-11T08:40:13;3.50;;;2.10;;
2406;SDS011;37709;53.480;9.688;2022-08-11T08:42:45;5.80;;;2.60;;
2406;SDS011;37709;53.480;9.688;2022-08-11T08:45:21;5.67;;;2.23;;
2406;SDS011;37709;53.480;9.688;2022-08-11T08:47:59;2.97;;;2.00;;
2406;SDS011;37709;53.480;9.688;2022-08-11T08:50:35;4.00;;;2.50;;
2406;SDS011;37709;53.480;9.688;2022-08-11T08:53:26;4.53;;;2.00;;
2406;SDS011;37709;53.480;9.688;2022-08-11T08:55:59;4.30;;;2.03;;
2406;SDS011;37709;53.480;9.688;2022-08-11T08:58:28;9.47;;;2.20;;
2406;SDS011;37709;53.480;9.688;2022-08-11T09:00:57;5.90;;;2.27;;
2406;SDS011;37709;53.480;9.688;2022-08-11T09:03:26;3.33;;;2.20;;
2406;SDS011;37709;53.480;9.688;2022-08-11T09:06:14;2.90;;;2.30;;
2406;SDS011;37709;53.480;9.688;2022-08-11T09:08:43;4.17;;;2.27;;
2406;SDS011;37709;53.480;9.688;2022-08-11T09:11:15;2.90;;;2.67;;
2406;SDS011;37709;53.480;9.688;2022-08-11T09:14:02;3.10;;;2.20;;
2406;SDS011;37709;53.480;9.688;2022-08-11T09:16:36;8.40;;;2.30;;
2406;SDS011;37709;53.480;9.688;2022-08-11T09:19:06;4.10;;;2.63;;
2406;SDS011;37709;53.480;9.688;2022-08-11T09:21:33;2.20;;;2.00;;
2406;SDS011;37709;53.480;9.688;2022-08-11T09:24:16;6.83;;;3.17;;
2406;SDS011;37709;53.480;9.688;2022-08-11T09:27:06;5.43;;;2.33;;
2406;SDS011;37709;53.480;9.688;2022-08-11T09:29:36;8.10;;;2.53;;
2406;SDS011;37709;53.480;9.688;2022-08-11T09:32:04;2.77;;;2.00;;
2406;SDS011;37709;53.480;9.688;2022-08-11T09:34:34;3.80;;;1.90;;
2406;SDS011;37709;53.480;9.688;2022-08-11T09:37:04;5.60;;;2.20;;
2406;SDS011;37709;53.480;9.688;2022-08-11T09:40:13;2.13;;;1.77;;
2406;SDS011;37709;53.480;9.688;2022-08-11T09:42:57;2.15;;;1.40;;
2406;SDS011;37709;53.480;9.688;2022-08-11T09:45:46;2.70;;;1.48;;
2406;SDS011;37709;53.480;9.688;2022-08-11T09:48:19;5.53;;;1.98;;
2406;SDS011;37709;53.480;9.688;2022-08-11T09:50:50;4.82;;;1.80;;
2406;SDS011;37709;53.480;9.688;2022-08-11T09:53:21;1.88;;;1.67;;
2406;SDS011;37709;53.480;9.688;2022-08-11T09:56:11;3.40;;;1.60;;
2406;SDS011;37709;53.480;9.688;2022-08-11T09:59:00;1.92;;;1.50;;
2406;SDS011;37709;53.480;9.688;2022-08-11T10:01:30;4.32;;;1.80;;
2406;SDS011;37709;53.480;9.688;2022-08-11T10:04:05;2.92;;;1.60;;
2406;SDS011;37709;53.480;9.688;2022-08-11T10:06:36;2.65;;;2.20;;
2406;SDS011;37709;53.480;9.688;2022-08-11T10:09:25;1.95;;;1.63;;
2406;SDS011;37709;53.480;9.688;2022-08-11T10:11:55;2.03;;;1.40;;
2406;SDS011;37709;53.480;9.688;2022-08-11T10:14:25;2.95;;;1.80;;
2406;SDS011;37709;53.480;9.688;2022-08-11T10:17:13;3.63;;;1.80;;
2406;SDS011;37709;53.480;9.688;2022-08-11T10:19:44;2.90;;;1.52;;
2406;SDS011;37709;53.480;9.688;2022-08-11T10:22:31;3.90;;;1.75;;
2406;SDS011;37709;53.480;9.688;2022-08-11T10:25:19;2.17;;;1.50;;
2406;SDS011;37709;53.480;9.688;2022-08-11T10:28:06;3.65;;;1.98;;
2406;SDS011;37709;53.480;9.688;2022-08-11T10:30:55;2.88;;;1.65;;
2406;SDS011;37709;53.480;9.688;2022-08-11T10:33:45;1.75;;;1.63;;
2406;SDS011;37709;53.480;9.688;2022-08-11T10:36:26;2.63;;;1.80;;
2406;SDS011;37709;53.480;9.688;2022-08-11T10:38:59;1.83;;;1.55;;
2406;SDS011;37709;53.480;9.688;2022-08-11T10:41:28;4.60;;;1.58;;
2406;SDS011;37709;53.480;9.688;2022-08-11T10:44:45;2.35;;;1.70;;
2406;SDS011;37709;53.480;9.688;2022-08-11T10:47:19;2.13;;;1.35;;
2406;SDS011;37709;53.480;9.688;2022-08-11T10:50:15;3.72;;;1.40;;
2406;SDS011;37709;53.480;9.688;2022-08-11T10:53:01;1.40;;;1.30;;
2406;SDS011;37709;53.480;9.688;2022-08-11T10:55:48;2.20;;;1.60;;
2406;SDS011;37709;53.480;9.688;2022-08-11T10:58:35;2.85;;;1.50;;
2406;SDS011;37709;53.480;9.688;2022-08-11T11:03:55;3.60;;;1.55;;
2406;SDS011;37709;53.480;9.688;2022-08-11T11:09:14;1.27;;;1.17;;
2406;SDS011;37709;53.480;9.688;2022-08-11T11:11:46;3.03;;;1.67;;
2406;SDS011;37709;53.480;9.688;2022-08-11T11:14:35;1.95;;;1.20;;
2406;SDS011;37709;53.480;9.688;2022-08-11T11:17:29;1.58;;;1.20;;
2406;SDS011;37709;53.480;9.688;2022-08-11T11:23:13;2.85;;;1.60;;
2406;SDS011;37709;53.480;9.688;2022-08-11T11:25:54;1.88;;;1.35;;
2406;SDS011;37709;53.480;9.688;2022-08-11T11:31:16;1.33;;;1.23;;
2406;SDS011;37709;53.480;9.688;2022-08-11T11:36:54;2.63;;;1.10;;
2406;SDS011;37709;53.480;9.688;2022-08-11T11:39:24;1.60;;;1.13;;
2406;SDS011;37709;53.480;9.688;2022-08-11T11:41:55;2.25;;;1.33;;
2406;SDS011;37709;53.480;9.688;2022-08-11T11:44:26;2.10;;;1.38;;
2406;SDS011;37709;53.480;9.688;2022-08-11T11:46:55;1.65;;;1.25;;
2406;SDS011;37709;53.480;9.688;2022-08-11T11:49:26;1.98;;;1.25;;
2406;SDS011;37709;53.480;9.688;2022-08-11T11:51:55;1.50;;;1.40;;
2406;SDS011;37709;53.480;9.688;2022-08-11T11:54:27;1.20;;;1.10;;
2406;SDS011;37709;53.480;9.688;2022-08-11T11:56:57;2.53;;;1.13;;
2406;SDS011;37709;53.480;9.688;2022-08-11T11:59:49;1.85;;;1.38;;
2406;SDS011;37709;53.480;9.688;2022-08-11T12:03:00;1.67;;;1.40;;
2406;SDS011;37709;53.480;9.688;2022-08-11T12:05:33;2.28;;;1.42;;
2406;SDS011;37709;53.480;9.688;2022-08-11T12:08:02;1.40;;;1.27;;
2406;SDS011;37709;53.480;9.688;2022-08-11T12:13:10;2.58;;;1.27;;
2406;SDS011;37709;53.480;9.688;2022-08-11T12:15:57;1.48;;;1.38;;
2406;SDS011;37709;53.480;9.688;2022-08-11T12:18:53;6.28;;;1.40;;
2406;SDS011;37709;53.480;9.688;2022-08-11T12:21:22;3.13;;;1.67;;
2406;SDS011;37709;53.480;9.688;2022-08-11T12:23:52;2.78;;;1.45;;
2406;SDS011;37709;53.480;9.688;2022-08-11T12:26:41;3.15;;;1.45;;
2406;SDS011;37709;53.480;9.688;2022-08-11T12:29:36;1.60;;;1.45;;
2406;SDS011;37709;53.480;9.688;2022-08-11T12:32:09;2.55;;;1.40;;
2406;SDS011;37709;53.480;9.688;2022-08-11T12:34:37;1.58;;;1.45;;
2406;SDS011;37709;53.480;9.688;2022-08-11T12:37:05;4.38;;;1.55;;
2406;SDS011;37709;53.480;9.688;2022-08-11T12:39:43;1.50;;;1.27;;
2406;SDS011;37709;53.480;9.688;2022-08-11T12:42:52;1.60;;;1.30;;
2406;SDS011;37709;53.480;9.688;2022-08-11T12:45:50;1.55;;;1.38;;
2406;SDS011;37709;53.480;9.688;2022-08-11T12:48:27;2.13;;;1.40;;
2406;SDS011;37709;53.480;9.688;2022-08-11T12:51:26;1.88;;;1.30;;
2406;SDS011;37709;53.480;9.688;2022-08-11T13:00:23;1.38;;;1.23;;
2406;SDS011;37709;53.480;9.688;2022-08-11T13:03:11;2.00;;;1.30;;
2406;SDS011;37709;53.480;9.688;2022-08-11T13:06:00;2.00;;;1.25;;
2406;SDS011;37709;53.480;9.688;2022-08-11T13:08:30;4.10;;;1.35;;
2406;SDS011;37709;53.480;9.688;2022-08-11T13:11:01;1.40;;;1.30;;
2406;SDS011;37709;53.480;9.688;2022-08-11T13:13:48;3.78;;;1.55;;
2406;SDS011;37709;53.480;9.688;2022-08-11T13:16:33;5.40;;;1.52;;
2406;SDS011;37709;53.480;9.688;2022-08-11T13:19:23;1.75;;;1.55;;
2406;SDS011;37709;53.480;9.688;2022-08-11T13:21:51;1.83;;;1.73;;
2406;SDS011;37709;53.480;9.688;2022-08-11T13:24:20;2.17;;;1.40;;
2406;SDS011;37709;53.480;9.688;2022-08-11T13:26:48;5.32;;;1.58;;
2406;SDS011;37709;53.480;9.688;2022-08-11T13:29:18;1.60;;;1.35;;
2406;SDS011;37709;53.480;9.688;2022-08-11T13:31:46;3.75;;;1.67;;
2406;SDS011;37709;53.480;9.688;2022-08-11T13:34:16;1.27;;;1.15;;
2406;SDS011;37709;53.480;9.688;2022-08-11T13:36:47;3.25;;;1.52;;
2406;SDS011;37709;53.480;9.688;2022-08-11T13:39:20;1.67;;;1.30;;
2406;SDS011;37709;53.480;9.688;2022-08-11T13:41:55;1.90;;;1.42;;
2406;SDS011;37709;53.480;9.688;2022-08-11T13:44:26;1.98;;;1.33;;
2406;SDS011;37709;53.480;9.688;2022-08-11T13:47:00;1.27;;;1.15;;
2406;SDS011;37709;53.480;9.688;2022-08-11T13:49:31;2.10;;;1.20;;
2406;SDS011;37709;53.480;9.688;2022-08-11T13:52:07;2.13;;;1.23;;
2406;SDS011;37709;53.480;9.688;2022-08-11T13:54:40;1.52;;;0.90;;
2406;SDS011;37709;53.480;9.688;2022-08-11T13:57:10;2.65;;;1.20;;
2406;SDS011;37709;53.480;9.688;2022-08-11T14:00:00;2.13;;;1.27;;
2406;SDS011;37709;53.480;9.688;2022-08-11T14:02:49;1.40;;;1.20;;
2406;SDS011;37709;53.480;9.688;2022-08-11T14:05:21;1.80;;;0.98;;
2406;SDS011;37709;53.480;9.688;2022-08-11T14:08:01;2.17;;;1.20;;
2406;SDS011;37709;53.480;9.688;2022-08-11T14:10:30;1.88;;;1.20;;
2406;SDS011;37709;53.480;9.688;2022-08-11T14:13:02;1.65;;;1.10;;
2406;SDS011;37709;53.480;9.688;2022-08-11T14:15:52;2.22;;;1.30;;
2406;SDS011;37709;53.480;9.688;2022-08-11T14:18:26;2.85;;;1.17;;
2406;SDS011;37709;53.480;9.688;2022-08-11T14:20:56;2.08;;;1.38;;
2406;SDS011;37709;53.480;9.688;2022-08-11T14:23:45;1.70;;;1.00;;
2406;SDS011;37709;53.480;9.688;2022-08-11T14:26:16;2.60;;;1.10;;
2406;SDS011;37709;53.480;9.688;2022-08-11T14:31:29;1.75;;;1.10;;
2406;SDS011;37709;53.480;9.688;2022-08-11T14:34:00;1.10;;;1.00;;
2406;SDS011;37709;53.480;9.688;2022-08-11T14:36:33;1.45;;;1.33;;
2406;SDS011;37709;53.480;9.688;2022-08-11T14:39:05;3.15;;;1.10;;
2406;SDS011;37709;53.480;9.688;2022-08-11T14:41:34;3.83;;;1.15;;
2406;SDS011;37709;53.480;9.688;2022-08-11T14:44:38;4.20;;;1.55;;
2406;SDS011;37709;53.480;9.688;2022-08-11T14:47:34;2.30;;;1.35;;
2406;SDS011;37709;53.480;9.688;2022-08-11T14:50:05;3.28;;;1.70;;
2406;SDS011;37709;53.480;9.688;2022-08-11T14:52:42;2.00;;;1.20;;
2406;SDS011;37709;53.480;9.688;2022-08-11T14:55:14;1.80;;;1.05;;
2406;SDS011;37709;53.480;9.688;2022-08-11T14:58:03;3.45;;;1.27;;
2406;SDS011;37709;53.480;9.688;2022-08-11T15:00:32;1.52;;;1.42;;
2406;SDS011;37709;53.480;9.688;2022-08-11T15:03:01;1.83;;;1.38;;
2406;SDS011;37709;53.480;9.688;2022-08-11T15:05:38;2.05;;;1.15;;
2406;SDS011;37709;53.480;9.688;2022-08-11T15:08:07;1.70;;;1.10;;
2406;SDS011;37709;53.480;9.688;2022-08-11T15:10:35;1.20;;;1.10;;
2406;SDS011;37709;53.480;9.688;2022-08-11T15:13:03;1.73;;;1.20;;
2406;SDS011;37709;53.480;9.688;2022-08-11T15:15:32;1.10;;;1.00;;
2406;SDS011;37709;53.480;9.688;2022-08-11T15:18:19;3.75;;;1.35;;
2406;SDS011;37709;53.480;9.688;2022-08-11T15:20:50;2.22;;;0.98;;
2406;SDS011;37709;53.480;9.688;2022-08-11T15:23:37;1.30;;;1.08;;
2406;SDS011;37709;53.480;9.688;2022-08-11T15:26:38;1.30;;;1.10;;
2406;SDS011;37709;53.480;9.688;2022-08-11T15:29:28;2.13;;;1.00;;
2406;SDS011;37709;53.480;9.688;2022-08-11T15:32:17;2.55;;;1.10;;
2406;SDS011;37709;53.480;9.688;2022-08-11T15:35:05;1.30;;;1.08;;
2406;SDS011;37709;53.480;9.688;2022-08-11T15:38:00;1.55;;;1.27;;
2406;SDS011;37709;53.480;9.688;2022-08-11T15:40:29;2.83;;;1.50;;
2406;SDS011;37709;53.480;9.688;2022-08-11T15:43:21;1.73;;;1.20;;
2406;SDS011;37709;53.480;9.688;2022-08-11T15:46:21;2.57;;;1.33;;
2406;SDS011;37709;53.480;9.688;2022-08-11T15:49:04;1.87;;;1.30;;
2406;SDS011;37709;53.480;9.688;2022-08-11T15:51:41;1.40;;;1.10;;
2406;SDS011;37709;53.480;9.688;2022-08-11T15:54:17;3.40;;;1.20;;
2406;SDS011;37709;53.480;9.688;2022-08-11T15:56:50;2.40;;;1.17;;
2406;SDS011;37709;53.480;9.688;2022-08-11T15:59:21;2.90;;;1.40;;
2406;SDS011;37709;53.480;9.688;2022-08-11T16:02:11;2.60;;;1.20;;
2406;SDS011;37709;53.480;9.688;2022-08-11T16:04:43;2.97;;;1.23;;
2406;SDS011;37709;53.480;9.688;2022-08-11T16:07:14;2.30;;;1.10;;
2406;SDS011;37709;53.480;9.688;2022-08-11T16:12:31;4.13;;;1.33;;
2406;SDS011;37709;53.480;9.688;2022-08-11T16:15:03;2.70;;;1.30;;
2406;SDS011;37709;53.480;9.688;2022-08-11T16:17:58;4.57;;;1.00;;
2406;SDS011;37709;53.480;9.688;2022-08-11T16:20:29;1.60;;;1.33;;
2406;SDS011;37709;53.480;9.688;2022-08-11T16:23:02;1.97;;;1.30;;
2406;SDS011;37709;53.480;9.688;2022-08-11T16:25:33;1.70;;;1.60;;
2406;SDS011;37709;53.480;9.688;2022-08-11T16:28:21;2.73;;;1.50;;
2406;SDS011;37709;53.480;9.688;2022-08-11T16:30:50;1.60;;;1.50;;
2406;SDS011;37709;53.480;9.688;2022-08-11T16:33:20;1.40;;;1.30;;
2406;SDS011;37709;53.480;9.688;2022-08-11T16:36:10;2.90;;;1.67;;
2406;SDS011;37709;53.480;9.688;2022-08-11T16:38:58;1.70;;;1.10;;
2406;SDS011;37709;53.480;9.688;2022-08-11T16:41:29;2.00;;;1.20;;
2406;SDS011;37709;53.480;9.688;2022-08-11T16:44:18;3.63;;;1.33;;
2406;SDS011;37709;53.480;9.688;2022-08-11T16:47:05;2.00;;;1.70;;
2406;SDS011;37709;53.480;9.688;2022-08-11T16:49:43;2.10;;;1.40;;
2406;SDS011;37709;53.480;9.688;2022-08-11T16:52:19;1.53;;;1.40;;
2406;SDS011;37709;53.480;9.688;2022-08-11T16:54:48;2.83;;;1.37;;
2406;SDS011;37709;53.480;9.688;2022-08-11T16:57:22;3.10;;;1.50;;
2406;SDS011;37709;53.480;9.688;2022-08-11T17:00:11;1.87;;;1.43;;
2406;SDS011;37709;53.480;9.688;2022-08-11T17:02:49;1.53;;;1.30;;
2406;SDS011;37709;53.480;9.688;2022-08-11T17:05:37;1.57;;;1.27;;
2406;SDS011;37709;53.480;9.688;2022-08-11T17:08:32;2.53;;;1.30;;
2406;SDS011;37709;53.480;9.688;2022-08-11T17:11:27;1.77;;;1.67;;
2406;SDS011;37709;53.480;9.688;2022-08-11T17:14:20;2.20;;;1.30;;
2406;SDS011;37709;53.480;9.688;2022-08-11T17:17:03;2.90;;;1.80;;
2406;SDS011;37709;53.480;9.688;2022-08-11T17:19:38;1.60;;;1.50;;
2406;SDS011;37709;53.480;9.688;2022-08-11T17:22:31;3.20;;;1.60;;
2406;SDS011;37709;53.480;9.688;2022-08-11T17:25:20;2.53;;;2.10;;
2406;SDS011;37709;53.480;9.688;2022-08-11T17:27:54;1.80;;;1.50;;
2406;SDS011;37709;53.480;9.688;2022-08-11T17:30:22;1.60;;;1.40;;
2406;SDS011;37709;53.480;9.688;2022-08-11T17:33:12;3.57;;;1.70;;
2406;SDS011;37709;53.480;9.688;2022-08-11T17:35:59;3.73;;;1.60;;
2406;SDS011;37709;53.480;9.688;2022-08-11T17:38:28;2.07;;;1.30;;
2406;SDS011;37709;53.480;9.688;2022-08-11T17:40:58;3.80;;;1.57;;
2406;SDS011;37709;53.480;9.688;2022-08-11T17:43:50;2.57;;;1.60;;
2406;SDS011;37709;53.480;9.688;2022-08-11T17:46:54;2.27;;;1.80;;
2406;SDS011;37709;53.480;9.688;2022-08-11T17:49:40;1.90;;;1.60;;
2406;SDS011;37709;53.480;9.688;2022-08-11T17:52:13;4.73;;;1.60;;
2406;SDS011;37709;53.480;9.688;2022-08-11T17:55:02;1.90;;;1.47;;
2406;SDS011;37709;53.480;9.688;2022-08-11T17:58:08;3.47;;;1.73;;
2406;SDS011;37709;53.480;9.688;2022-08-11T18:00:55;1.70;;;1.40;;
2406;SDS011;37709;53.480;9.688;2022-08-11T18:03:35;4.93;;;1.63;;
2406;SDS011;37709;53.480;9.688;2022-08-11T18:06:07;2.80;;;1.43;;
2406;SDS011;37709;53.480;9.688;2022-08-11T18:11:54;3.00;;;1.90;;
2406;SDS011;37709;53.480;9.688;2022-08-11T18:14:43;4.20;;;2.20;;
2406;SDS011;37709;53.480;9.688;2022-08-11T18:17:31;2.33;;;1.77;;
2406;SDS011;37709;53.480;9.688;2022-08-11T18:20:18;3.03;;;1.50;;
2406;SDS011;37709;53.480;9.688;2022-08-11T18:23:07;5.20;;;2.00;;
2406;SDS011;37709;53.480;9.688;2022-08-11T18:26:14;10.23;;;2.47;;
2406;SDS011;37709;53.480;9.688;2022-08-11T18:29:04;2.73;;;1.73;;
2406;SDS011;37709;53.480;9.688;2022-08-11T18:31:52;3.63;;;1.90;;
2406;SDS011;37709;53.480;9.688;2022-08-11T18:34:49;2.93;;;1.63;;
2406;SDS011;37709;53.480;9.688;2022-08-11T18:37:38;6.80;;;2.00;;
2406;SDS011;37709;53.480;9.688;2022-08-11T18:40:31;6.63;;;1.73;;
2406;SDS011;37709;53.480;9.688;2022-08-11T18:43:20;3.33;;;1.93;;
2406;SDS011;37709;53.480;9.688;2022-08-11T18:46:09;5.10;;;1.83;;
2406;SDS011;37709;53.480;9.688;2022-08-11T18:48:58;2.60;;;1.80;;
2406;SDS011;37709;53.480;9.688;2022-08-11T18:51:52;3.60;;;1.70;;
2406;SDS011;37709;53.480;9.688;2022-08-11T18:54:40;2.80;;;1.97;;
2406;SDS011;37709;53.480;9.688;2022-08-11T18:57:28;5.20;;;1.90;;
2406;SDS011;37709;53.480;9.688;2022-08-11T19:00:23;3.00;;;1.70;;
2406;SDS011;37709;53.480;9.688;2022-08-11T19:03:11;3.40;;;1.50;;
2406;SDS011;37709;53.480;9.688;2022-08-11T19:06:14;4.33;;;2.10;;
2406;SDS011;37709;53.480;9.688;2022-08-11T19:09:11;2.40;;;1.53;;
2406;SDS011;37709;53.480;9.688;2022-08-11T19:11:59;3.37;;;1.93;;
2406;SDS011;37709;53.480;9.688;2022-08-11T19:14:48;3.47;;;1.70;;
2406;SDS011;37709;53.480;9.688;2022-08-11T19:17:40;4.17;;;2.10;;
2406;SDS011;37709;53.480;9.688;2022-08-11T19:20:28;2.90;;;1.60;;
2406;SDS011;37709;53.480;9.688;2022-08-11T19:23:17;3.20;;;2.03;;
2406;SDS011;37709;53.480;9.688;2022-08-11T19:26:09;3.27;;;1.87;;
2406;SDS011;37709;53.480;9.688;2022-08-11T19:28:56;1.97;;;1.63;;
2406;SDS011;37709;53.480;9.688;2022-08-11T19:32:04;3.30;;;1.80;;
2406;SDS011;37709;53.480;9.688;2022-08-11T19:34:51;2.57;;;1.60;;
2406;SDS011;37709;53.480;9.688;2022-08-11T19:37:38;8.00;;;2.00;;
2406;SDS011;37709;53.480;9.688;2022-08-11T19:40:25;4.40;;;1.23;;
2406;SDS011;37709;53.480;9.688;2022-08-11T19:43:11;2.30;;;1.60;;
2406;SDS011;37709;53.480;9.688;2022-08-11T19:45:59;4.37;;;1.60;;
2406;SDS011;37709;53.480;9.688;2022-08-11T19:48:49;4.30;;;1.83;;
2406;SDS011;37709;53.480;9.688;2022-08-11T19:51:38;3.70;;;2.33;;
2406;SDS011;37709;53.480;9.688;2022-08-11T19:54:27;3.97;;;2.33;;
2406;SDS011;37709;53.480;9.688;2022-08-11T19:57:16;3.70;;;2.37;;